createdAt,value
2016-12-18T00:00:08.262Z,82.63
2016-12-18T00:01:07.992Z,83.60
2016-12-18T00:02:08.775Z,82.64
2016-12-18T00:03:08.520Z,83.43
2016-12-18T00:04:09.074Z,82.45
2016-12-18T00:05:07.969Z,82.89
2016-12-18T00:06:07.764Z,83.17
2016-12-18T00:07:08.738Z,83.21
2016-12-18T00:08:08.625Z,84.06
2016-12-18T00:09:08.232Z,83.52
2016-12-18T00:10:08.664Z,83.67
2016-12-18T00:11:08.213Z,82.53
2016-12-18T00:12:13.915Z,83.11
2016-12-18T00:13:08.703Z,83.14
2016-12-18T00:14:08.289Z,82.68
2016-12-18T00:15:08.188Z,82.76
2016-12-18T00:16:08.030Z,82.53
2016-12-18T00:17:08.016Z,82.25
2016-12-18T00:18:08.740Z,82.76
2016-12-18T00:19:08.455Z,82.20
2016-12-18T00:20:08.628Z,82.47
2016-12-18T00:21:08.258Z,82.06
2016-12-18T00:22:08.458Z,83.47
2016-12-18T00:23:08.352Z,83.13
2016-12-18T00:24:07.898Z,83.16
2016-12-18T00:25:07.999Z,82.47
2016-12-18T00:26:08.108Z,82.01
2016-12-18T00:27:07.957Z,82.30
2016-12-18T00:28:07.902Z,82.73
2016-12-18T00:29:08.824Z,81.85
2016-12-18T00:30:09.692Z,82.50
2016-12-18T00:31:08.535Z,82.93
2016-12-18T00:32:08.346Z,82.72
2016-12-18T00:33:08.224Z,83.54
2016-12-18T00:34:07.733Z,82.84
2016-12-18T00:35:08.981Z,82.79
2016-12-18T00:36:07.667Z,82.34
2016-12-18T00:37:08.732Z,83.06
2016-12-18T00:38:08.642Z,82.51
2016-12-18T00:39:08.475Z,83.54
2016-12-18T00:40:08.436Z,83.01
2016-12-18T00:41:08.430Z,83.71
2016-12-18T00:42:08.352Z,83.40
2016-12-18T00:43:09.742Z,83.00
2016-12-18T00:44:08.310Z,83.22
2016-12-18T00:45:08.601Z,83.06
2016-12-18T00:46:08.445Z,83.08
2016-12-18T00:47:08.376Z,81.90
2016-12-18T00:48:08.313Z,81.81
2016-12-18T00:49:08.187Z,82.45
2016-12-18T00:50:08.010Z,83.06
2016-12-18T00:51:08.051Z,83.45
2016-12-18T00:52:08.056Z,82.98
2016-12-18T00:53:08.073Z,83.50
2016-12-18T00:54:07.841Z,83.35
2016-12-18T00:55:08.438Z,83.65
2016-12-18T00:56:08.433Z,83.00
2016-12-18T00:57:08.252Z,83.34
2016-12-18T00:58:08.123Z,83.64
2016-12-18T00:59:08.016Z,83.65
2016-12-18T01:00:08.147Z,84.24
2016-12-18T01:01:08.127Z,84.04
2016-12-18T01:02:08.111Z,84.75
2016-12-18T01:03:07.617Z,84.75
2016-12-18T01:04:07.847Z,83.62
2016-12-18T01:05:08.670Z,82.47
2016-12-18T01:06:08.615Z,82.84
2016-12-18T01:07:09.424Z,82.55
2016-12-18T01:08:08.248Z,82.20
2016-12-18T01:09:08.138Z,82.81
2016-12-18T01:10:07.972Z,82.64
2016-12-18T01:11:07.766Z,83.32
2016-12-18T01:12:08.756Z,83.80
2016-12-18T01:13:08.637Z,83.28
2016-12-18T01:14:08.565Z,83.02
2016-12-18T01:15:08.457Z,83.44
2016-12-18T01:16:08.312Z,82.95
2016-12-18T01:17:08.326Z,82.95
2016-12-18T01:18:08.085Z,82.77
2016-12-18T01:19:07.770Z,82.01
2016-12-18T01:20:08.403Z,81.64
2016-12-18T01:21:08.282Z,82.21
2016-12-18T01:22:07.873Z,82.46
2016-12-18T01:23:08.668Z,82.62
2016-12-18T01:24:08.547Z,82.35
2016-12-18T01:25:08.372Z,82.38
2016-12-18T01:26:08.182Z,82.14
2016-12-18T01:27:07.655Z,83.44
2016-12-18T01:28:08.655Z,83.71
2016-12-18T01:29:08.592Z,82.96
2016-12-18T01:30:08.452Z,83.12
2016-12-18T01:31:08.073Z,82.55
2016-12-18T01:32:08.328Z,82.90
2016-12-18T01:33:07.995Z,82.93
2016-12-18T01:34:08.268Z,83.09
2016-12-18T01:35:08.161Z,83.19
2016-12-18T01:36:08.044Z,82.86
2016-12-18T01:37:07.942Z,82.50
2016-12-18T01:38:07.930Z,82.70
2016-12-18T01:39:08.783Z,82.85
2016-12-18T01:40:08.622Z,82.76
2016-12-18T01:41:08.282Z,83.17
2016-12-18T01:42:08.091Z,83.07
2016-12-18T01:43:07.658Z,82.99
2016-12-18T01:44:08.550Z,82.80
2016-12-18T01:45:08.260Z,82.76
2016-12-18T01:46:08.120Z,83.82
2016-12-18T01:47:07.971Z,84.04
2016-12-18T01:48:07.762Z,83.12
2016-12-18T01:49:08.673Z,83.18
2016-12-18T01:50:08.132Z,83.79
2016-12-18T01:51:08.670Z,83.90
2016-12-18T01:52:08.199Z,84.43
2016-12-18T01:53:08.558Z,84.17
2016-12-18T01:54:08.408Z,84.13
2016-12-18T01:55:08.300Z,83.98
2016-12-18T01:56:07.953Z,83.49
2016-12-18T01:57:08.598Z,83.73
2016-12-18T01:58:08.517Z,84.01
2016-12-18T01:59:08.474Z,84.59
2016-12-18T02:00:08.347Z,84.57
2016-12-18T02:01:08.157Z,84.17
2016-12-18T02:02:07.946Z,83.99
2016-12-18T02:03:07.900Z,83.83
2016-12-18T02:04:08.209Z,83.15
2016-12-18T02:05:07.925Z,82.86
2016-12-18T02:06:08.683Z,83.37
2016-12-18T02:07:08.241Z,83.51
2016-12-18T02:08:08.642Z,83.35
2016-12-18T02:09:08.543Z,83.05
2016-12-18T02:10:08.355Z,82.85
2016-12-18T02:11:08.265Z,83.24
2016-12-18T02:12:07.744Z,82.63
2016-12-18T02:13:07.931Z,82.98
2016-12-18T02:14:08.140Z,82.86
2016-12-18T02:15:07.977Z,82.53
2016-12-18T02:16:07.595Z,82.66
2016-12-18T02:17:08.935Z,84.30
2016-12-18T02:18:07.779Z,82.59
2016-12-18T02:19:08.593Z,82.07
2016-12-18T02:20:08.479Z,82.19
2016-12-18T02:21:08.412Z,82.30
2016-12-18T02:22:08.288Z,82.85
2016-12-18T02:23:08.123Z,82.64
2016-12-18T02:24:08.151Z,83.04
2016-12-18T02:25:08.080Z,83.60
2016-12-18T02:26:07.943Z,82.68
2016-12-18T02:27:07.480Z,83.08
2016-12-18T02:28:08.540Z,83.11
2016-12-18T02:29:08.164Z,82.63
2016-12-18T02:30:08.391Z,82.39
2016-12-18T02:31:08.248Z,82.80
2016-12-18T02:32:08.039Z,83.07
2016-12-18T02:33:08.037Z,82.63
2016-12-18T02:34:07.995Z,83.09
2016-12-18T02:35:08.126Z,82.59
2016-12-18T02:36:07.906Z,83.57
2016-12-18T02:37:07.827Z,83.84
2016-12-18T02:38:08.768Z,83.59
2016-12-18T02:39:08.585Z,83.77
2016-12-18T02:40:08.548Z,84.12
2016-12-18T02:41:09.330Z,83.58
2016-12-18T02:42:08.089Z,83.46
2016-12-18T02:43:08.092Z,83.99
2016-12-18T02:44:08.128Z,83.27
2016-12-18T02:45:08.012Z,83.90
2016-12-18T02:46:07.841Z,83.72
2016-12-18T02:47:08.633Z,83.82
2016-12-18T02:48:08.339Z,84.48
2016-12-18T02:49:08.169Z,84.02
2016-12-18T02:50:08.080Z,83.41
2016-12-18T02:51:08.116Z,83.02
2016-12-18T02:52:08.017Z,83.25
2016-12-18T02:53:07.733Z,83.47
2016-12-18T02:54:08.370Z,83.45
2016-12-18T02:55:08.260Z,83.72
2016-12-18T02:56:08.098Z,84.21
2016-12-18T02:57:08.102Z,84.10
2016-12-18T02:58:07.993Z,83.95
2016-12-18T02:59:07.871Z,83.50
2016-12-18T03:00:08.499Z,83.99
2016-12-18T03:01:08.537Z,84.45
2016-12-18T03:02:08.165Z,84.27
2016-12-18T03:03:08.134Z,84.66
2016-12-18T03:04:08.140Z,84.37
2016-12-18T03:05:08.117Z,84.26
2016-12-18T03:06:08.115Z,84.21
2016-12-18T03:07:08.086Z,85.13
2016-12-18T03:08:08.088Z,84.64
2016-12-18T03:09:07.589Z,84.34
2016-12-18T03:10:07.813Z,84.89
2016-12-18T03:11:08.360Z,85.71
2016-12-18T03:12:08.068Z,85.92
2016-12-18T03:13:07.889Z,85.68
2016-12-18T03:14:08.687Z,85.18
2016-12-18T03:15:08.444Z,85.46
2016-12-18T03:16:09.569Z,85.67
2016-12-18T03:17:08.554Z,85.36
2016-12-18T03:18:08.533Z,85.26
2016-12-18T03:19:08.382Z,85.35
2016-12-18T03:20:08.041Z,84.56
2016-12-18T03:21:07.544Z,85.32
2016-12-18T03:22:07.711Z,85.01
2016-12-18T03:23:08.659Z,84.60
2016-12-18T03:24:08.184Z,84.41
2016-12-18T03:25:08.411Z,84.41
2016-12-18T03:26:09.171Z,85.23
2016-12-18T03:27:08.212Z,85.43
2016-12-18T03:28:08.020Z,84.58
2016-12-18T03:29:07.916Z,84.22
2016-12-18T03:30:09.125Z,84.63
2016-12-18T03:31:07.929Z,85.53
2016-12-18T03:32:07.946Z,85.24
2016-12-18T03:33:08.288Z,85.02
2016-12-18T03:34:07.975Z,85.06
2016-12-18T03:35:08.309Z,85.33
2016-12-18T03:36:08.211Z,84.98
2016-12-18T03:37:08.102Z,84.76
2016-12-18T03:38:07.941Z,84.91
2016-12-18T03:39:08.459Z,85.26
2016-12-18T03:40:08.344Z,85.61
2016-12-18T03:41:08.217Z,85.44
2016-12-18T03:42:08.228Z,84.85
2016-12-18T03:43:07.948Z,84.75
2016-12-18T03:44:07.835Z,84.87
2016-12-18T03:45:08.394Z,85.12
2016-12-18T03:46:08.467Z,84.72
2016-12-18T03:47:08.412Z,84.95
2016-12-18T03:48:08.331Z,84.77
2016-12-18T03:49:07.913Z,85.02
2016-12-18T03:50:08.472Z,85.13
2016-12-18T03:51:08.306Z,85.61
2016-12-18T03:52:08.190Z,85.46
2016-12-18T03:53:08.121Z,85.48
2016-12-18T03:54:08.577Z,85.48
2016-12-18T03:55:08.321Z,85.99
2016-12-18T03:56:08.086Z,86.04
2016-12-18T03:57:07.930Z,85.32
2016-12-18T03:58:08.668Z,85.05
2016-12-18T03:59:09.853Z,84.48
2016-12-18T04:00:08.144Z,84.50
2016-12-18T04:01:07.972Z,84.42
2016-12-18T04:02:07.833Z,84.29
2016-12-18T04:03:08.735Z,84.71
2016-12-18T04:04:08.583Z,85.72
2016-12-18T04:05:08.518Z,86.09
2016-12-18T04:06:08.518Z,85.57
2016-12-18T04:07:08.459Z,85.80
2016-12-18T04:08:08.106Z,85.41
2016-12-18T04:09:08.467Z,85.49
2016-12-18T04:10:08.296Z,85.91
2016-12-18T04:11:08.153Z,85.81
2016-12-18T04:12:08.765Z,85.22
2016-12-18T04:13:08.587Z,85.17
2016-12-18T04:14:08.493Z,85.15
2016-12-18T04:15:08.475Z,85.45
2016-12-18T04:16:08.358Z,86.23
2016-12-18T04:17:08.154Z,85.99
2016-12-18T04:18:07.559Z,86.14
2016-12-18T04:19:08.337Z,85.44
2016-12-18T04:20:08.563Z,85.37
2016-12-18T04:21:08.446Z,85.15
2016-12-18T04:22:08.251Z,85.58
2016-12-18T04:23:08.035Z,85.80
2016-12-18T04:24:08.531Z,86.32
2016-12-18T04:25:08.369Z,85.61
2016-12-18T04:26:08.217Z,86.26
2016-12-18T04:27:08.226Z,85.35
2016-12-18T04:28:08.195Z,85.04
2016-12-18T04:29:08.195Z,84.79
2016-12-18T04:30:08.133Z,85.37
2016-12-18T04:31:08.099Z,85.30
2016-12-18T04:32:08.332Z,84.73
2016-12-18T04:33:07.958Z,84.86
2016-12-18T04:34:08.186Z,85.31
2016-12-18T04:35:07.938Z,84.37
2016-12-18T04:36:07.957Z,84.73
2016-12-18T04:37:07.990Z,85.43
2016-12-18T04:38:07.949Z,85.04
2016-12-18T04:39:08.519Z,84.98
2016-12-18T04:40:08.679Z,85.00
2016-12-18T04:41:08.563Z,85.55
2016-12-18T04:42:08.431Z,86.31
2016-12-18T04:43:08.328Z,86.05
2016-12-18T04:44:08.218Z,86.43
2016-12-18T04:45:08.245Z,85.95
2016-12-18T04:46:07.808Z,85.95
2016-12-18T04:47:08.402Z,86.64
2016-12-18T04:48:08.324Z,86.23
2016-12-18T04:49:08.262Z,85.99
2016-12-18T04:50:08.077Z,85.97
2016-12-18T04:51:07.987Z,86.65
2016-12-18T04:52:08.033Z,86.89
2016-12-18T04:53:07.948Z,85.54
2016-12-18T04:54:07.979Z,85.14
2016-12-18T04:55:07.761Z,84.68
2016-12-18T04:56:08.780Z,84.85
2016-12-18T04:57:08.656Z,84.99
2016-12-18T04:58:08.578Z,85.22
2016-12-18T04:59:08.438Z,85.54
2016-12-18T05:00:08.348Z,85.95
2016-12-18T05:01:08.051Z,86.55
2016-12-18T05:02:08.263Z,86.09
2016-12-18T05:03:08.337Z,86.30
2016-12-18T05:04:08.180Z,86.32
2016-12-18T05:05:08.163Z,85.45
2016-12-18T05:06:08.708Z,86.31
2016-12-18T05:07:08.163Z,85.72
2016-12-18T05:08:08.199Z,85.26
2016-12-18T05:09:07.989Z,85.61
2016-12-18T05:10:08.078Z,85.36
2016-12-18T05:11:07.980Z,85.10
2016-12-18T05:12:08.092Z,85.54
2016-12-18T05:13:07.625Z,84.60
2016-12-18T05:14:08.511Z,84.35
2016-12-18T05:15:08.202Z,83.92
2016-12-18T05:16:08.329Z,84.60
2016-12-18T05:17:08.514Z,84.44
2016-12-18T05:18:08.388Z,85.37
2016-12-18T05:19:08.380Z,85.63
2016-12-18T05:20:08.331Z,85.91
2016-12-18T05:21:08.369Z,85.85
2016-12-18T05:22:08.364Z,85.89
2016-12-18T05:23:08.262Z,85.90
2016-12-18T05:24:08.274Z,85.12
2016-12-18T05:25:10.968Z,85.60
2016-12-18T05:26:07.774Z,85.61
2016-12-18T05:27:08.318Z,85.53
2016-12-18T05:28:07.939Z,85.71
2016-12-18T05:29:08.321Z,85.95
2016-12-18T05:30:08.291Z,86.25
2016-12-18T05:31:07.918Z,85.47
2016-12-18T05:32:08.601Z,84.87
2016-12-18T05:33:08.525Z,84.60
2016-12-18T05:34:08.400Z,85.24
2016-12-18T05:35:08.309Z,85.83
2016-12-18T05:36:07.889Z,85.56
2016-12-18T05:37:08.349Z,84.98
2016-12-18T05:38:08.029Z,85.32
2016-12-18T05:39:08.548Z,85.14
2016-12-18T05:40:08.152Z,85.04
2016-12-18T05:41:08.749Z,85.19
2016-12-18T05:42:07.867Z,84.93
2016-12-18T05:43:09.879Z,84.84
2016-12-18T05:44:08.135Z,84.90
2016-12-18T05:45:08.132Z,85.49
2016-12-18T05:46:08.006Z,85.36
2016-12-18T05:47:09.430Z,85.12
2016-12-18T05:48:08.396Z,84.91
2016-12-18T05:49:08.407Z,85.52
2016-12-18T05:50:08.380Z,85.17
2016-12-18T05:51:08.343Z,85.22
2016-12-18T05:52:08.330Z,84.93
2016-12-18T05:53:08.039Z,84.82
2016-12-18T05:54:08.197Z,84.95
2016-12-18T05:55:08.299Z,84.82
2016-12-18T05:56:08.587Z,84.67
2016-12-18T05:57:08.512Z,84.91
2016-12-18T05:58:08.335Z,85.24
2016-12-18T05:59:08.238Z,85.59
2016-12-18T06:00:08.180Z,85.20
2016-12-18T06:01:07.913Z,85.54
2016-12-18T06:02:08.747Z,85.54
2016-12-18T06:03:08.593Z,85.20
2016-12-18T06:04:08.228Z,84.91
2016-12-18T06:05:08.579Z,84.50
2016-12-18T06:06:08.423Z,84.22
2016-12-18T06:07:08.413Z,83.82
2016-12-18T06:08:08.420Z,84.54
2016-12-18T06:09:08.328Z,85.33
2016-12-18T06:10:08.331Z,85.10
2016-12-18T06:11:08.325Z,84.34
2016-12-18T06:12:08.228Z,83.95
2016-12-18T06:13:08.132Z,83.68
2016-12-18T06:14:09.693Z,83.62
2016-12-18T06:15:08.310Z,83.64
2016-12-18T06:16:08.502Z,83.71
2016-12-18T06:17:08.376Z,83.62
2016-12-18T06:18:08.424Z,83.96
2016-12-18T06:19:08.277Z,84.18
2016-12-18T06:20:08.161Z,84.39
2016-12-18T06:21:07.885Z,84.00
2016-12-18T06:22:08.663Z,83.68
2016-12-18T06:23:08.553Z,83.58
2016-12-18T06:24:08.390Z,82.86
2016-12-18T06:25:08.276Z,83.28
2016-12-18T06:26:08.249Z,83.21
2016-12-18T06:27:07.920Z,83.02
2016-12-18T06:28:08.497Z,82.85
2016-12-18T06:29:08.473Z,82.32
2016-12-18T06:30:08.477Z,83.05
2016-12-18T06:31:08.432Z,82.94
2016-12-18T06:32:15.018Z,82.92
2016-12-18T06:33:08.101Z,83.32
2016-12-18T06:34:07.979Z,83.79
2016-12-18T06:35:08.175Z,83.72
2016-12-18T06:36:08.081Z,83.27
2016-12-18T06:37:07.857Z,82.59
2016-12-18T06:38:08.506Z,82.92
2016-12-18T06:39:08.407Z,84.37
2016-12-18T06:40:08.367Z,84.39
2016-12-18T06:41:08.340Z,83.38
2016-12-18T06:42:08.295Z,83.20
2016-12-18T06:43:08.029Z,83.22
2016-12-18T06:44:07.868Z,83.14
2016-12-18T06:45:07.968Z,83.67
2016-12-18T06:46:08.033Z,84.05
2016-12-18T06:47:07.595Z,83.90
2016-12-18T06:48:08.584Z,83.54
2016-12-18T06:49:08.381Z,83.87
2016-12-18T06:50:08.340Z,83.34
2016-12-18T06:51:08.451Z,83.02
2016-12-18T06:52:08.364Z,83.07
2016-12-18T06:53:08.416Z,83.08
2016-12-18T06:54:08.399Z,83.04
2016-12-18T06:55:08.427Z,83.13
2016-12-18T06:56:08.372Z,82.89
2016-12-18T06:57:08.231Z,82.97
2016-12-18T06:58:08.330Z,82.89
2016-12-18T06:59:08.333Z,83.20
2016-12-18T07:00:08.191Z,83.05
2016-12-18T07:01:08.192Z,83.33
2016-12-18T07:02:08.149Z,83.58
2016-12-18T07:03:08.180Z,83.47
2016-12-18T07:04:07.904Z,84.00
2016-12-18T07:05:08.140Z,84.19
2016-12-18T07:06:08.108Z,84.68
2016-12-18T07:07:08.119Z,83.82
2016-12-18T07:08:07.847Z,83.08
2016-12-18T07:09:08.160Z,83.16
2016-12-18T07:10:08.208Z,83.49
2016-12-18T07:11:08.175Z,83.67
2016-12-18T07:12:08.008Z,83.51
2016-12-18T07:13:08.356Z,83.02
2016-12-18T07:14:08.661Z,83.19
2016-12-18T07:15:08.487Z,82.88
2016-12-18T07:16:08.477Z,82.88
2016-12-18T07:17:08.478Z,82.90
2016-12-18T07:18:08.380Z,83.20
2016-12-18T07:19:08.415Z,83.39
2016-12-18T07:20:08.439Z,83.04
2016-12-18T07:21:08.544Z,83.41
2016-12-18T07:22:08.399Z,83.35
2016-12-18T07:23:08.218Z,83.22
2016-12-18T07:24:07.966Z,83.90
2016-12-18T07:25:08.037Z,83.98
2016-12-18T07:26:08.518Z,83.63
2016-12-18T07:27:08.401Z,83.15
2016-12-18T07:28:08.445Z,83.07
2016-12-18T07:29:08.471Z,83.60
2016-12-18T07:30:08.831Z,83.61
2016-12-18T07:31:08.696Z,84.06
2016-12-18T07:32:08.265Z,83.92
2016-12-18T07:33:08.436Z,83.75
2016-12-18T07:34:08.655Z,83.63
2016-12-18T07:35:08.216Z,83.53
2016-12-18T07:36:08.194Z,83.58
2016-12-18T07:37:08.319Z,83.63
2016-12-18T07:38:08.165Z,84.43
2016-12-18T07:39:08.248Z,84.34
2016-12-18T07:40:08.140Z,84.35
2016-12-18T07:41:08.194Z,83.72
2016-12-18T07:42:08.253Z,84.69
2016-12-18T07:43:08.189Z,84.43
2016-12-18T07:44:08.193Z,84.24
2016-12-18T07:45:08.604Z,84.31
2016-12-18T07:46:08.511Z,84.00
2016-12-18T07:47:08.234Z,84.74
2016-12-18T07:48:08.568Z,84.46
2016-12-18T07:49:08.434Z,84.70
2016-12-18T07:50:08.436Z,85.03
2016-12-18T07:51:08.507Z,84.78
2016-12-18T07:52:08.496Z,84.55
2016-12-18T07:53:08.082Z,83.81
2016-12-18T07:54:08.333Z,83.49
2016-12-18T07:55:08.225Z,83.40
2016-12-18T07:56:08.825Z,83.88
2016-12-18T07:57:08.759Z,83.75
2016-12-18T07:58:08.631Z,83.20
2016-12-18T07:59:08.517Z,84.11
2016-12-18T08:00:08.512Z,84.16
2016-12-18T08:01:08.556Z,83.97
2016-12-18T08:02:08.392Z,83.76
2016-12-18T08:03:08.476Z,83.75
2016-12-18T08:04:08.615Z,82.66
2016-12-18T08:05:08.440Z,83.37
2016-12-18T08:06:08.249Z,83.16
2016-12-18T08:07:08.192Z,83.14
2016-12-18T08:08:08.229Z,82.65
2016-12-18T08:09:08.264Z,83.36
2016-12-18T08:10:08.076Z,83.27
2016-12-18T08:11:08.243Z,83.72
2016-12-18T08:12:08.163Z,84.39
2016-12-18T08:13:08.176Z,83.99
2016-12-18T08:14:08.289Z,83.48
2016-12-18T08:15:08.213Z,83.18
2016-12-18T08:16:08.191Z,82.83
2016-12-18T08:17:08.708Z,82.92
2016-12-18T08:18:08.570Z,82.64
2016-12-18T08:19:08.781Z,82.30
2016-12-18T08:20:08.389Z,82.20
2016-12-18T08:21:08.398Z,82.42
2016-12-18T08:22:08.274Z,82.90
2016-12-18T08:23:08.248Z,83.03
2016-12-18T08:24:08.192Z,82.83
2016-12-18T08:25:08.433Z,83.01
2016-12-18T08:26:08.474Z,82.31
2016-12-18T08:27:08.429Z,82.70
2016-12-18T08:28:07.975Z,82.81
2016-12-18T08:29:07.997Z,82.46
2016-12-18T08:30:08.187Z,82.19
2016-12-18T08:31:07.859Z,82.63
2016-12-18T08:32:09.003Z,83.05
2016-12-18T08:33:08.396Z,82.75
2016-12-18T08:34:08.284Z,82.10
2016-12-18T08:35:08.711Z,81.78
2016-12-18T08:36:08.587Z,81.38
2016-12-18T08:37:08.540Z,82.17
2016-12-18T08:38:08.682Z,82.36
2016-12-18T08:39:08.222Z,81.71
2016-12-18T08:40:08.246Z,81.64
2016-12-18T08:41:08.213Z,81.44
2016-12-18T08:42:07.885Z,81.24
2016-12-18T08:43:08.218Z,81.31
2016-12-18T08:44:08.152Z,81.16
2016-12-18T08:45:08.136Z,81.40
2016-12-18T08:46:08.115Z,81.16
2016-12-18T08:47:08.280Z,81.25
2016-12-18T08:48:08.297Z,81.58
2016-12-18T08:49:08.532Z,81.96
2016-12-18T08:50:08.532Z,82.92
2016-12-18T08:51:08.504Z,82.78
2016-12-18T08:52:08.205Z,82.11
2016-12-18T08:53:08.226Z,83.36
2016-12-18T08:54:08.233Z,82.33
2016-12-18T08:55:08.271Z,82.01
2016-12-18T08:56:08.315Z,80.71
2016-12-18T08:57:08.277Z,80.30
2016-12-18T08:58:08.331Z,81.36
2016-12-18T08:59:08.388Z,81.79
2016-12-18T09:00:08.296Z,81.23
2016-12-18T09:01:07.963Z,81.45
2016-12-18T09:02:08.630Z,80.88
2016-12-18T09:03:08.438Z,80.93
2016-12-18T09:04:08.466Z,81.11
2016-12-18T09:05:08.661Z,80.83
2016-12-18T09:06:08.644Z,80.35
2016-12-18T09:07:08.604Z,80.76
2016-12-18T09:08:09.533Z,80.66
2016-12-18T09:09:08.238Z,80.57
2016-12-18T09:10:08.266Z,80.19
2016-12-18T09:11:09.123Z,80.37
2016-12-18T09:12:08.174Z,80.81
2016-12-18T09:13:07.772Z,81.12
2016-12-18T09:14:08.163Z,80.75
2016-12-18T09:15:07.751Z,80.06
2016-12-18T09:16:08.591Z,80.50
2016-12-18T09:17:08.648Z,80.44
2016-12-18T09:18:08.503Z,79.87
2016-12-18T09:19:08.660Z,79.77
2016-12-18T09:20:08.642Z,79.49
2016-12-18T09:21:08.578Z,79.40
2016-12-18T09:22:08.463Z,79.64
2016-12-18T09:23:08.482Z,80.27
2016-12-18T09:24:08.235Z,79.95
2016-12-18T09:25:08.258Z,79.47
2016-12-18T09:26:08.295Z,79.37
2016-12-18T09:27:08.280Z,79.07
2016-12-18T09:28:07.520Z,78.77
2016-12-18T09:29:08.594Z,78.95
2016-12-18T09:30:08.605Z,79.55
2016-12-18T09:31:14.980Z,80.05
2016-12-18T09:32:07.956Z,79.33
2016-12-18T09:33:07.967Z,79.19
2016-12-18T09:34:08.191Z,80.27
2016-12-18T09:35:08.242Z,79.24
2016-12-18T09:36:07.916Z,79.37
2016-12-18T09:37:08.119Z,79.02
2016-12-18T09:38:09.150Z,79.49
2016-12-18T09:39:08.558Z,79.53
2016-12-18T09:40:08.547Z,79.59
2016-12-18T09:41:08.458Z,79.18
2016-12-18T09:42:08.070Z,80.23
2016-12-18T09:43:08.059Z,79.60
2016-12-18T09:44:08.188Z,79.01
2016-12-18T09:45:08.187Z,79.47
2016-12-18T09:46:08.124Z,79.13
2016-12-18T09:47:08.151Z,79.54
2016-12-18T09:48:09.310Z,79.41
2016-12-18T09:49:13.520Z,79.47
2016-12-18T09:50:08.681Z,79.60
2016-12-18T09:51:08.659Z,79.42
2016-12-18T09:52:15.426Z,79.14
2016-12-18T09:53:08.905Z,78.97
2016-12-18T09:54:09.496Z,79.11
2016-12-18T09:55:08.472Z,78.83
2016-12-18T09:56:09.121Z,78.95
2016-12-18T09:57:09.799Z,78.75
2016-12-18T09:58:09.222Z,78.51
2016-12-18T09:59:07.944Z,78.54
2016-12-18T10:00:09.538Z,78.45
2016-12-18T10:01:08.685Z,78.76
2016-12-18T10:02:08.241Z,78.82
2016-12-18T10:03:09.104Z,78.41
2016-12-18T10:04:08.091Z,78.61
2016-12-18T10:05:08.754Z,79.56
2016-12-18T10:06:14.311Z,80.74
2016-12-18T10:07:08.313Z,80.39
2016-12-18T10:08:13.663Z,80.06
2016-12-18T10:09:08.689Z,79.22
2016-12-18T10:10:09.582Z,78.78
2016-12-18T10:11:15.714Z,78.62
2016-12-18T10:12:09.258Z,78.82
2016-12-18T10:13:13.949Z,78.76
2016-12-18T10:14:07.850Z,78.43
2016-12-18T10:15:12.480Z,78.15
2016-12-18T10:16:08.662Z,78.86
2016-12-18T10:17:14.415Z,78.52
2016-12-18T10:18:08.929Z,78.44
2016-12-18T10:19:09.826Z,78.82
2016-12-18T10:20:08.300Z,78.01
2016-12-18T10:21:08.437Z,78.04
2016-12-18T10:22:15.740Z,78.25
2016-12-18T10:23:08.750Z,78.24
2016-12-18T10:24:09.475Z,77.40
2016-12-18T10:25:08.401Z,77.24
2016-12-18T10:26:08.461Z,77.88
2016-12-18T10:27:08.493Z,77.86
2016-12-18T10:28:08.420Z,78.18
2016-12-18T10:29:08.419Z,78.12
2016-12-18T10:30:08.404Z,78.51
2016-12-18T10:31:09.138Z,78.09
2016-12-18T10:32:08.322Z,78.22
2016-12-18T10:33:07.910Z,78.38
2016-12-18T10:34:08.527Z,78.04
2016-12-18T10:35:07.991Z,77.81
2016-12-18T10:36:08.663Z,77.60
2016-12-18T10:37:08.199Z,77.27
2016-12-18T10:38:07.913Z,77.00
2016-12-18T10:39:08.706Z,77.42
2016-12-18T10:40:08.604Z,77.06
2016-12-18T10:41:08.643Z,76.37
2016-12-18T10:42:08.530Z,76.65
2016-12-18T10:43:08.368Z,76.32
2016-12-18T10:44:08.217Z,76.32
2016-12-18T10:45:08.308Z,76.23
2016-12-18T10:46:16.592Z,76.00
2016-12-18T10:47:08.331Z,75.66
2016-12-18T10:48:08.282Z,75.13
2016-12-18T10:49:08.268Z,74.92
2016-12-18T10:50:08.228Z,74.80
2016-12-18T10:51:08.142Z,74.17
2016-12-18T10:52:08.216Z,73.96
2016-12-18T10:53:08.150Z,73.98
2016-12-18T10:54:08.036Z,73.98
2016-12-18T10:55:07.962Z,74.05
2016-12-18T10:56:07.514Z,74.17
2016-12-18T10:57:09.002Z,74.25
2016-12-18T10:58:07.872Z,74.15
2016-12-18T10:59:08.449Z,73.74
2016-12-18T11:00:08.249Z,74.88
2016-12-18T11:01:08.040Z,74.25
2016-12-18T11:02:08.320Z,74.40
2016-12-18T11:03:08.249Z,74.58
2016-12-18T11:04:08.455Z,74.24
2016-12-18T11:05:08.661Z,74.40
2016-12-18T11:06:08.674Z,74.69
2016-12-18T11:07:08.559Z,75.21
2016-12-18T11:08:08.476Z,75.36
2016-12-18T11:09:08.591Z,75.00
2016-12-18T11:10:10.134Z,75.15
2016-12-18T11:11:08.215Z,75.21
2016-12-18T11:12:08.166Z,75.42
2016-12-18T11:13:08.189Z,75.28
2016-12-18T11:14:08.233Z,75.69
2016-12-18T11:15:08.288Z,75.65
2016-12-18T11:16:08.272Z,75.75
2016-12-18T11:17:08.389Z,77.15
2016-12-18T11:18:08.232Z,76.81
2016-12-18T11:19:08.625Z,76.09
2016-12-18T11:20:08.340Z,75.88
2016-12-18T11:21:08.338Z,76.14
2016-12-18T11:22:08.001Z,76.24
2016-12-18T11:23:09.497Z,76.07
2016-12-18T11:24:13.630Z,75.59
2016-12-18T11:25:08.415Z,76.18
2016-12-18T11:26:08.516Z,76.60
2016-12-18T11:27:08.530Z,76.32
2016-12-18T11:28:08.872Z,76.60
2016-12-18T11:29:08.711Z,77.27
2016-12-18T11:30:08.708Z,77.14
2016-12-18T11:31:08.712Z,77.03
2016-12-18T11:32:08.768Z,77.08
2016-12-18T11:33:08.766Z,76.84
2016-12-18T11:34:08.876Z,78.39
2016-12-18T11:35:08.504Z,78.68
2016-12-18T11:36:08.536Z,78.70
2016-12-18T11:37:08.819Z,78.89
2016-12-18T11:38:09.019Z,78.48
2016-12-18T11:39:07.849Z,78.12
2016-12-18T11:40:08.769Z,77.02
2016-12-18T11:41:08.631Z,77.33
2016-12-18T11:42:08.523Z,76.92
2016-12-18T11:43:08.383Z,76.27
2016-12-18T11:44:08.893Z,76.63
2016-12-18T11:45:08.453Z,76.69
2016-12-18T11:46:08.562Z,76.89
2016-12-18T11:47:08.491Z,76.72
2016-12-18T11:48:08.463Z,76.79
2016-12-18T11:49:08.563Z,76.81
2016-12-18T11:50:08.434Z,76.89
2016-12-18T11:51:08.536Z,76.79
2016-12-18T11:52:08.438Z,77.07
2016-12-18T11:53:08.312Z,77.33
2016-12-18T11:54:08.109Z,77.02
2016-12-18T11:55:08.503Z,76.95
2016-12-18T11:56:08.263Z,76.91
2016-12-18T11:57:08.351Z,77.57
2016-12-18T11:58:08.329Z,77.63
2016-12-18T11:59:08.246Z,77.66
2016-12-18T12:00:08.380Z,77.25
2016-12-18T12:01:08.339Z,77.50
2016-12-18T12:02:08.171Z,77.44
2016-12-18T12:03:07.841Z,77.10
2016-12-18T12:04:08.719Z,77.10
2016-12-18T12:05:08.740Z,77.09
2016-12-18T12:06:08.473Z,76.94
2016-12-18T12:07:08.208Z,76.99
2016-12-18T12:08:08.108Z,76.99
2016-12-18T12:09:08.043Z,77.36
2016-12-18T12:10:08.067Z,76.86
2016-12-18T12:11:07.779Z,77.54
2016-12-18T12:12:08.875Z,77.52
2016-12-18T12:13:08.828Z,78.10
2016-12-18T12:14:08.853Z,77.75
2016-12-18T12:15:08.856Z,77.93
2016-12-18T12:16:08.835Z,78.26
2016-12-18T12:17:09.045Z,78.38
2016-12-18T12:18:08.228Z,78.03
2016-12-18T12:19:08.299Z,78.27
2016-12-18T12:20:08.048Z,78.39
2016-12-18T12:21:08.650Z,78.52
2016-12-18T12:22:08.514Z,78.80
2016-12-18T12:23:08.503Z,79.19
2016-12-18T12:24:08.497Z,79.00
2016-12-18T12:25:08.518Z,79.33
2016-12-18T12:26:08.365Z,79.16
2016-12-18T12:27:08.491Z,79.05
2016-12-18T12:28:08.501Z,78.64
2016-12-18T12:29:08.541Z,79.00
2016-12-18T12:30:08.339Z,79.02
2016-12-18T12:31:08.629Z,79.18
2016-12-18T12:32:08.603Z,79.51
2016-12-18T12:33:08.627Z,79.30
2016-12-18T12:34:08.868Z,79.03
2016-12-18T12:35:08.613Z,78.60
2016-12-18T12:36:08.608Z,78.62
2016-12-18T12:37:08.534Z,79.14
2016-12-18T12:38:08.561Z,79.06
2016-12-18T12:39:09.436Z,78.79
2016-12-18T12:40:18.254Z,78.72
2016-12-18T12:41:07.915Z,78.74
2016-12-18T12:42:08.689Z,78.57
2016-12-18T12:43:08.568Z,78.56
2016-12-18T12:44:08.439Z,78.01
2016-12-18T12:45:08.587Z,77.92
2016-12-18T12:46:08.644Z,77.90
2016-12-18T12:47:08.596Z,78.42
2016-12-18T12:48:08.707Z,78.18
2016-12-18T12:49:08.769Z,78.25
2016-12-18T12:50:08.622Z,78.78
2016-12-18T12:51:08.588Z,78.70
2016-12-18T12:52:08.706Z,78.62